sensor_id;sensor_type;location;lat;lon;timestamp;pressure;altitude;pressure_sealevel;temperature;humidity
75640;BME280;64233;51.486;6.332;2024-01-15T00:01:27;154322.56;;;-0.69;100.00
75640;BME280;64233;51.486;6.332;2024-01-15T00:03:52;154305.97;;;-0.76;100.00
75640;BME280;64233;51.486;6.332;2024-01-15T00:06:17;154317.44;;;-0.71;100.00
75640;BME280;64233;51.486;6.332;2024-01-15T00:08:43;154317.44;;;-0.71;100.00
75640;BME280;64233;51.486;6.332;2024-01-15T00:11:08;154320.00;;;-0.70;100.00
75640;BME280;64233;51.486;6.332;2024-01-15T00:13:33;154318.75;;;-0.71;100.00
75640;BME280;64233;51.486;6.332;2024-01-15T00:15:58;154327.66;;;-0.67;100.00
75640;BME280;64233;51.486;6.332;2024-01-15T00:18:24;154327.66;;;-0.67;100.00
75640;BME280;64233;51.486;6.332;2024-01-15T00:20:49;154325.13;;;-0.68;100.00
75640;BME280;64233;51.486;6.332;2024-01-15T00:23:14;154337.84;;;-0.63;100.00
75640;BME280;64233;51.486;6.332;2024-01-15T00:25:40;154341.69;;;-0.61;100.00
75640;BME280;64233;51.486;6.332;2024-01-15T00:28:06;154345.50;;;-0.60;100.00
75640;BME280;64233;51.486;6.332;2024-01-15T00:30:31;154346.81;;;-0.59;100.00
75640;BME280;64233;51.486;6.332;2024-01-15T00:32:56;154346.81;;;-0.59;100.00
75640;BME280;64233;51.486;6.332;2024-01-15T00:35:22;154343.00;;;-0.61;100.00
75640;BME280;64233;51.486;6.332;2024-01-15T00:37:47;154341.69;;;-0.61;100.00
75640;BME280;64233;51.486;6.332;2024-01-15T00:40:12;154344.25;;;-0.60;100.00
75640;BME280;64233;51.486;6.332;2024-01-15T00:42:38;154337.84;;;-0.63;100.00
75640;BME280;64233;51.486;6.332;2024-01-15T00:45:03;154332.78;;;-0.65;100.00
75640;BME280;64233;51.486;6.332;2024-01-15T00:47:30;154335.28;;;-0.64;100.00
75640;BME280;64233;51.486;6.332;2024-01-15T00:49:55;154331.47;;;-0.65;100.00
75640;BME280;64233;51.486;6.332;2024-01-15T00:52:21;154320.00;;;-0.70;100.00
75640;BME280;64233;51.486;6.332;2024-01-15T00:54:46;154326.41;;;-0.67;100.00
75640;BME280;64233;51.486;6.332;2024-01-15T00:57:11;154326.41;;;-0.67;100.00
75640;BME280;64233;51.486;6.332;2024-01-15T00:59:37;154341.69;;;-0.61;100.00
75640;BME280;64233;51.486;6.332;2024-01-15T01:02:03;154337.84;;;-0.63;100.00
75640;BME280;64233;51.486;6.332;2024-01-15T01:04:28;154325.13;;;-0.68;100.00
75640;BME280;64233;51.486;6.332;2024-01-15T01:06:53;154312.38;;;-0.73;100.00
75640;BME280;64233;51.486;6.332;2024-01-15T01:09:19;154318.75;;;-0.71;100.00
75640;BME280;64233;51.486;6.332;2024-01-15T01:11:44;154309.81;;;-0.74;100.00
75640;BME280;64233;51.486;6.332;2024-01-15T01:14:09;154308.53;;;-0.75;100.00
75640;BME280;64233;51.486;6.332;2024-01-15T01:16:34;154308.53;;;-0.75;100.00
75640;BME280;64233;51.486;6.332;2024-01-15T01:19:07;154317.44;;;-0.71;100.00
75640;BME280;64233;51.486;6.332;2024-01-15T01:21:33;154326.41;;;-0.67;100.00
75640;BME280;64233;51.486;6.332;2024-01-15T01:23:58;154335.28;;;-0.64;100.00
75640;BME280;64233;51.486;6.332;2024-01-15T01:26:23;154334.03;;;-0.64;100.00
75640;BME280;64233;51.486;6.332;2024-01-15T01:28:49;154334.03;;;-0.64;100.00
75640;BME280;64233;51.486;6.332;2024-01-15T01:31:14;154332.78;;;-0.65;100.00
75640;BME280;64233;51.486;6.332;2024-01-15T01:33:41;154332.78;;;-0.65;100.00
75640;BME280;64233;51.486;6.332;2024-01-15T01:36:10;154339.16;;;-0.62;100.00
75640;BME280;64233;51.486;6.332;2024-01-15T01:38:38;154330.22;;;-0.66;100.00
75640;BME280;64233;51.486;6.332;2024-01-15T01:41:03;154337.84;;;-0.63;100.00
75640;BME280;64233;51.486;6.332;2024-01-15T01:43:28;154348.06;;;-0.59;100.00
75640;BME280;64233;51.486;6.332;2024-01-15T01:45:56;154332.78;;;-0.65;100.00
75640;BME280;64233;51.486;6.332;2024-01-15T01:48:21;154323.81;;;-0.68;100.00
75640;BME280;64233;51.486;6.332;2024-01-15T01:50:47;154332.78;;;-0.65;100.00
75640;BME280;64233;51.486;6.332;2024-01-15T01:53:13;154348.06;;;-0.59;100.00
75640;BME280;64233;51.486;6.332;2024-01-15T01:55:38;154344.25;;;-0.60;100.00
75640;BME280;64233;51.486;6.332;2024-01-15T01:58:04;154346.81;;;-0.59;100.00
75640;BME280;64233;51.486;6.332;2024-01-15T02:00:30;154343.00;;;-0.61;100.00
75640;BME280;64233;51.486;6.332;2024-01-15T02:02:57;154336.59;;;-0.63;100.00
75640;BME280;64233;51.486;6.332;2024-01-15T02:05:22;154339.16;;;-0.62;100.00
75640;BME280;64233;51.486;6.332;2024-01-15T02:07:48;154334.03;;;-0.64;100.00
75640;BME280;64233;51.486;6.332;2024-01-15T02:10:13;154326.41;;;-0.67;100.00
75640;BME280;64233;51.486;6.332;2024-01-15T02:12:39;154330.22;;;-0.66;100.00
75640;BME280;64233;51.486;6.332;2024-01-15T02:15:04;154313.63;;;-0.73;100.00
75640;BME280;64233;51.486;6.332;2024-01-15T02:17:30;154320.00;;;-0.70;100.00
75640;BME280;64233;51.486;6.332;2024-01-15T02:19:55;154298.34;;;-0.79;100.00
75640;BME280;64233;51.486;6.332;2024-01-15T02:22:21;154294.50;;;-0.80;100.00
75640;BME280;64233;51.486;6.332;2024-01-15T02:24:46;154307.22;;;-0.75;100.00
75640;BME280;64233;51.486;6.332;2024-01-15T02:27:11;154308.53;;;-0.75;100.00
75640;BME280;64233;51.486;6.332;2024-01-15T02:29:37;154321.25;;;-0.70;100.00
75640;BME280;64233;51.486;6.332;2024-01-15T02:32:06;154321.25;;;-0.70;100.00
75640;BME280;64233;51.486;6.332;2024-01-15T02:34:32;154320.00;;;-0.70;100.00
75640;BME280;64233;51.486;6.332;2024-01-15T02:36:57;154331.47;;;-0.65;100.00
75640;BME280;64233;51.486;6.332;2024-01-15T02:39:23;154339.16;;;-0.62;100.00
75640;BME280;64233;51.486;6.332;2024-01-15T02:41:48;154339.16;;;-0.62;100.00
75640;BME280;64233;51.486;6.332;2024-01-15T02:44:13;154341.69;;;-0.61;100.00
75640;BME280;64233;51.486;6.332;2024-01-15T02:46:41;154330.22;;;-0.66;100.00
75640;BME280;64233;51.486;6.332;2024-01-15T02:49:06;154311.09;;;-0.74;100.00
75640;BME280;64233;51.486;6.332;2024-01-15T02:51:32;154326.41;;;-0.67;100.00
75640;BME280;64233;51.486;6.332;2024-01-15T02:53:57;154316.19;;;-0.72;100.00
75640;BME280;64233;51.486;6.332;2024-01-15T02:56:22;154327.66;;;-0.67;100.00
75640;BME280;64233;51.486;6.332;2024-01-15T02:58:47;154322.56;;;-0.69;100.00
75640;BME280;64233;51.486;6.332;2024-01-15T03:01:13;154316.19;;;-0.72;100.00
75640;BME280;64233;51.486;6.332;2024-01-15T03:03:40;154327.66;;;-0.67;100.00
75640;BME280;64233;51.486;6.332;2024-01-15T03:06:05;154304.72;;;-0.76;100.00
75640;BME280;64233;51.486;6.332;2024-01-15T03:08:31;154313.63;;;-0.73;100.00
75640;BME280;64233;51.486;6.332;2024-01-15T03:10:56;154311.09;;;-0.74;100.00
75640;BME280;64233;51.486;6.332;2024-01-15T03:13:21;154305.97;;;-0.76;100.00
75640;BME280;64233;51.486;6.332;2024-01-15T03:15:47;154293.22;;;-0.81;100.00
75640;BME280;64233;51.486;6.332;2024-01-15T03:18:12;154313.63;;;-0.73;100.00
75640;BME280;64233;51.486;6.332;2024-01-15T03:20:37;154281.75;;;-0.85;100.00
75640;BME280;64233;51.486;6.332;2024-01-15T03:23:03;154290.69;;;-0.82;100.00
75640;BME280;64233;51.486;6.332;2024-01-15T03:25:28;154285.56;;;-0.84;100.00
75640;BME280;64233;51.486;6.332;2024-01-15T03:27:53;154293.22;;;-0.81;100.00
75640;BME280;64233;51.486;6.332;2024-01-15T03:30:19;154312.38;;;-0.73;100.00
75640;BME280;64233;51.486;6.332;2024-01-15T03:32:44;154298.34;;;-0.79;100.00
75640;BME280;64233;51.486;6.332;2024-01-15T03:35:09;154312.38;;;-0.73;100.00
75640;BME280;64233;51.486;6.332;2024-01-15T03:37:34;154309.81;;;-0.74;100.00
75640;BME280;64233;51.486;6.332;2024-01-15T03:40:00;154308.53;;;-0.75;100.00
75640;BME280;64233;51.486;6.332;2024-01-15T03:42:26;154302.16;;;-0.77;100.00
75640;BME280;64233;51.486;6.332;2024-01-15T03:44:51;154288.13;;;-0.83;100.00
75640;BME280;64233;51.486;6.332;2024-01-15T03:47:16;154297.06;;;-0.79;100.00
75640;BME280;64233;51.486;6.332;2024-01-15T03:49:41;154291.94;;;-0.81;100.00
75640;BME280;64233;51.486;6.332;2024-01-15T03:52:07;154290.69;;;-0.82;100.00
75640;BME280;64233;51.486;6.332;2024-01-15T03:54:32;154281.75;;;-0.85;100.00
75640;BME280;64233;51.486;6.332;2024-01-15T03:56:57;154284.31;;;-0.84;100.00
75640;BME280;64233;51.486;6.332;2024-01-15T03:59:22;154284.31;;;-0.84;100.00
75640;BME280;64233;51.486;6.332;2024-01-15T04:01:51;154288.13;;;-0.83;100.00
75640;BME280;64233;51.486;6.332;2024-01-15T04:04:17;154270.28;;;-0.90;100.00
75640;BME280;64233;51.486;6.332;2024-01-15T04:06:42;154276.66;;;-0.88;100.00
75640;BME280;64233;51.486;6.332;2024-01-15T04:09:07;154270.28;;;-0.90;100.00
75640;BME280;64233;51.486;6.332;2024-01-15T04:11:33;154267.72;;;-0.91;100.00
75640;BME280;64233;51.486;6.332;2024-01-15T04:13:58;154265.16;;;-0.92;100.00
75640;BME280;64233;51.486;6.332;2024-01-15T04:16:23;154276.66;;;-0.88;100.00
75640;BME280;64233;51.486;6.332;2024-01-15T04:18:48;154297.06;;;-0.79;100.00
75640;BME280;64233;51.486;6.332;2024-01-15T04:21:14;154309.81;;;-0.74;100.00
75640;BME280;64233;51.486;6.332;2024-01-15T04:23:39;154291.94;;;-0.81;100.00
75640;BME280;64233;51.486;6.332;2024-01-15T04:26:04;154314.94;;;-0.72;100.00
75640;BME280;64233;51.486;6.332;2024-01-15T04:28:30;154332.78;;;-0.65;100.00
75640;BME280;64233;51.486;6.332;2024-01-15T04:30:55;154325.13;;;-0.68;100.00
75640;BME280;64233;51.486;6.332;2024-01-15T04:33:20;154326.41;;;-0.67;100.00
75640;BME280;64233;51.486;6.332;2024-01-15T04:35:46;154327.66;;;-0.67;100.00
75640;BME280;64233;51.486;6.332;2024-01-15T04:38:11;154326.41;;;-0.67;100.00
75640;BME280;64233;51.486;6.332;2024-01-15T04:40:36;154326.41;;;-0.67;100.00
75640;BME280;64233;51.486;6.332;2024-01-15T04:43:01;154325.13;;;-0.68;100.00
75640;BME280;64233;51.486;6.332;2024-01-15T04:45:27;154321.25;;;-0.70;100.00
75640;BME280;64233;51.486;6.332;2024-01-15T04:47:55;154323.81;;;-0.68;100.00
75640;BME280;64233;51.486;6.332;2024-01-15T04:50:23;154325.13;;;-0.68;100.00
75640;BME280;64233;51.486;6.332;2024-01-15T04:52:49;154318.75;;;-0.71;100.00
75640;BME280;64233;51.486;6.332;2024-01-15T04:55:15;154328.97;;;-0.66;100.00
75640;BME280;64233;51.486;6.332;2024-01-15T04:57:40;154334.03;;;-0.64;100.00
75640;BME280;64233;51.486;6.332;2024-01-15T05:00:06;154330.22;;;-0.66;100.00
75640;BME280;64233;51.486;6.332;2024-01-15T05:02:31;154321.25;;;-0.70;100.00
75640;BME280;64233;51.486;6.332;2024-01-15T05:04:57;154322.56;;;-0.69;100.00
75640;BME280;64233;51.486;6.332;2024-01-15T05:07:22;154313.63;;;-0.73;100.00
75640;BME280;64233;51.486;6.332;2024-01-15T05:09:47;154320.00;;;-0.70;100.00
75640;BME280;64233;51.486;6.332;2024-01-15T05:12:15;154326.41;;;-0.67;100.00
75640;BME280;64233;51.486;6.332;2024-01-15T05:14:41;154334.03;;;-0.64;100.00
75640;BME280;64233;51.486;6.332;2024-01-15T05:17:06;154344.25;;;-0.60;100.00
75640;BME280;64233;51.486;6.332;2024-01-15T05:19:32;154327.66;;;-0.67;100.00
75640;BME280;64233;51.486;6.332;2024-01-15T05:21:57;154331.47;;;-0.65;100.00
75640;BME280;64233;51.486;6.332;2024-01-15T05:24:22;154353.19;;;-0.57;100.00
75640;BME280;64233;51.486;6.332;2024-01-15T05:26:48;154368.50;;;-0.50;100.00
75640;BME280;64233;51.486;6.332;2024-01-15T05:29:13;154371.06;;;-0.49;100.00
75640;BME280;64233;51.486;6.332;2024-01-15T05:31:38;154377.41;;;-0.47;100.00
75640;BME280;64233;51.486;6.332;2024-01-15T05:34:04;154387.59;;;-0.43;100.00
75640;BME280;64233;51.486;6.332;2024-01-15T05:36:29;154383.78;;;-0.44;100.00
75640;BME280;64233;51.486;6.332;2024-01-15T05:38:54;154369.75;;;-0.50;100.00
75640;BME280;64233;51.486;6.332;2024-01-15T05:41:19;154355.72;;;-0.56;100.00
75640;BME280;64233;51.486;6.332;2024-01-15T05:43:45;154373.56;;;-0.48;100.00
75640;BME280;64233;51.486;6.332;2024-01-15T05:46:10;154363.34;;;-0.53;100.00
75640;BME280;64233;51.486;6.332;2024-01-15T05:48:35;154340.41;;;-0.62;100.00
75640;BME280;64233;51.486;6.332;2024-01-15T05:51:01;154344.25;;;-0.60;100.00
75640;BME280;64233;51.486;6.332;2024-01-15T05:53:27;154335.28;;;-0.64;100.00
75640;BME280;64233;51.486;6.332;2024-01-15T05:55:52;154337.84;;;-0.63;100.00
75640;BME280;64233;51.486;6.332;2024-01-15T05:58:19;154362.09;;;-0.53;100.00
75640;BME280;64233;51.486;6.332;2024-01-15T06:00:44;154365.94;;;-0.52;100.00
75640;BME280;64233;51.486;6.332;2024-01-15T06:03:10;154350.63;;;-0.58;100.00
75640;BME280;64233;51.486;6.332;2024-01-15T06:05:36;154369.75;;;-0.50;100.00
75640;BME280;64233;51.486;6.332;2024-01-15T06:08:01;154365.94;;;-0.52;100.00
75640;BME280;64233;51.486;6.332;2024-01-15T06:10:26;154383.78;;;-0.44;100.00
75640;BME280;64233;51.486;6.332;2024-01-15T06:12:51;154385.09;;;-0.44;100.00
75640;BME280;64233;51.486;6.332;2024-01-15T06:15:17;154369.75;;;-0.50;100.00
75640;BME280;64233;51.486;6.332;2024-01-15T06:17:42;154345.50;;;-0.60;100.00
75640;BME280;64233;51.486;6.332;2024-01-15T06:20:08;154336.59;;;-0.63;100.00
75640;BME280;64233;51.486;6.332;2024-01-15T06:22:34;154318.75;;;-0.71;100.00
75640;BME280;64233;51.486;6.332;2024-01-15T06:25:00;154293.22;;;-0.81;100.00
75640;BME280;64233;51.486;6.332;2024-01-15T06:27:26;154283.03;;;-0.85;100.00
75640;BME280;64233;51.486;6.332;2024-01-15T06:29:51;154298.34;;;-0.79;100.00
75640;BME280;64233;51.486;6.332;2024-01-15T06:32:16;154305.97;;;-0.76;100.00
75640;BME280;64233;51.486;6.332;2024-01-15T06:34:41;154320.00;;;-0.70;100.00
75640;BME280;64233;51.486;6.332;2024-01-15T06:37:07;154331.47;;;-0.65;100.00
75640;BME280;64233;51.486;6.332;2024-01-15T06:39:32;154334.03;;;-0.64;100.00
75640;BME280;64233;51.486;6.332;2024-01-15T06:41:57;154327.66;;;-0.67;100.00
75640;BME280;64233;51.486;6.332;2024-01-15T06:44:23;154345.50;;;-0.60;100.00
75640;BME280;64233;51.486;6.332;2024-01-15T06:46:48;154334.03;;;-0.64;100.00
75640;BME280;64233;51.486;6.332;2024-01-15T06:49:13;154328.97;;;-0.66;100.00
75640;BME280;64233;51.486;6.332;2024-01-15T06:51:39;154323.81;;;-0.68;100.00
75640;BME280;64233;51.486;6.332;2024-01-15T06:54:04;154317.44;;;-0.71;100.00
75640;BME280;64233;51.486;6.332;2024-01-15T06:56:31;154321.25;;;-0.70;100.00
75640;BME280;64233;51.486;6.332;2024-01-15T06:58:56;154318.75;;;-0.71;100.00
75640;BME280;64233;51.486;6.332;2024-01-15T07:01:22;154328.97;;;-0.66;100.00
75640;BME280;64233;51.486;6.332;2024-01-15T07:03:47;154339.16;;;-0.62;100.00
75640;BME280;64233;51.486;6.332;2024-01-15T07:06:15;154331.47;;;-0.65;100.00
75640;BME280;64233;51.486;6.332;2024-01-15T07:08:41;154344.25;;;-0.60;100.00
75640;BME280;64233;51.486;6.332;2024-01-15T07:11:07;154355.72;;;-0.56;100.00
75640;BME280;64233;51.486;6.332;2024-01-15T07:13:32;154355.72;;;-0.56;100.00
75640;BME280;64233;51.486;6.332;2024-01-15T07:15:58;154355.72;;;-0.56;100.00
75640;BME280;64233;51.486;6.332;2024-01-15T07:18:23;154355.72;;;-0.56;100.00
75640;BME280;64233;51.486;6.332;2024-01-15T07:20:49;154341.69;;;-0.61;100.00
75640;BME280;64233;51.486;6.332;2024-01-15T07:23:14;154353.19;;;-0.57;100.00
75640;BME280;64233;51.486;6.332;2024-01-15T07:25:39;154336.59;;;-0.63;100.00
75640;BME280;64233;51.486;6.332;2024-01-15T07:28:05;154325.13;;;-0.68;100.00
75640;BME280;64233;51.486;6.332;2024-01-15T07:30:30;154317.44;;;-0.71;100.00
75640;BME280;64233;51.486;6.332;2024-01-15T07:32:55;154313.63;;;-0.73;100.00
75640;BME280;64233;51.486;6.332;2024-01-15T07:35:21;154304.72;;;-0.76;100.00
75640;BME280;64233;51.486;6.332;2024-01-15T07:37:47;154300.91;;;-0.78;100.00
75640;BME280;64233;51.486;6.332;2024-01-15T07:40:12;154283.03;;;-0.85;100.00
75640;BME280;64233;51.486;6.332;2024-01-15T07:42:37;154251.13;;;-0.98;100.00
75640;BME280;64233;51.486;6.332;2024-01-15T07:45:08;154247.28;;;-0.99;100.00
75640;BME280;64233;51.486;6.332;2024-01-15T07:47:33;154243.47;;;-1.01;100.00
75640;BME280;64233;51.486;6.332;2024-01-15T07:49:58;154244.78;;;-1.00;100.00
75640;BME280;64233;51.486;6.332;2024-01-15T07:52:24;154240.97;;;-1.02;100.00
75640;BME280;64233;51.486;6.332;2024-01-15T07:54:49;154229.44;;;-1.07;100.00
75640;BME280;64233;51.486;6.332;2024-01-15T07:57:14;154233.28;;;-1.05;100.00
75640;BME280;64233;51.486;6.332;2024-01-15T07:59:40;154242.22;;;-1.01;100.00
75640;BME280;64233;51.486;6.332;2024-01-15T08:02:05;154249.84;;;-0.98;100.00
75640;BME280;64233;51.486;6.332;2024-01-15T08:04:30;154256.25;;;-0.96;100.00
75640;BME280;64233;51.486;6.332;2024-01-15T08:06:56;154261.31;;;-0.94;100.00
75640;BME280;64233;51.486;6.332;2024-01-15T08:09:22;154269.03;;;-0.91;100.00
75640;BME280;64233;51.486;6.332;2024-01-15T08:11:47;154271.53;;;-0.90;100.00
75640;BME280;64233;51.486;6.332;2024-01-15T08:14:14;154279.16;;;-0.87;100.00
75640;BME280;64233;51.486;6.332;2024-01-15T08:16:39;154277.91;;;-0.87;100.00
75640;BME280;64233;51.486;6.332;2024-01-15T08:19:05;154289.38;;;-0.82;100.00
75640;BME280;64233;51.486;6.332;2024-01-15T08:21:30;154285.56;;;-0.84;100.00
75640;BME280;64233;51.486;6.332;2024-01-15T08:24:00;154284.31;;;-0.84;100.00
75640;BME280;64233;51.486;6.332;2024-01-15T08:26:26;154285.56;;;-0.84;100.00
75640;BME280;64233;51.486;6.332;2024-01-15T08:28:51;154295.78;;;-0.80;100.00
75640;BME280;64233;51.486;6.332;2024-01-15T08:31:16;154277.91;;;-0.87;100.00
75640;BME280;64233;51.486;6.332;2024-01-15T08:33:42;154261.31;;;-0.94;100.00
75640;BME280;64233;51.486;6.332;2024-01-15T08:36:07;154244.78;;;-1.00;100.00
75640;BME280;64233;51.486;6.332;2024-01-15T08:38:32;154238.41;;;-1.03;100.00
75640;BME280;64233;51.486;6.332;2024-01-15T08:40:58;154232.00;;;-1.06;100.00
75640;BME280;64233;51.486;6.332;2024-01-15T08:43:25;154240.97;;;-1.02;100.00
75640;BME280;64233;51.486;6.332;2024-01-15T08:45:51;154249.84;;;-0.98;100.00
75640;BME280;64233;51.486;6.332;2024-01-15T08:48:16;154255.00;;;-0.96;100.00
75640;BME280;64233;51.486;6.332;2024-01-15T08:50:41;154266.44;;;-0.92;100.00
75640;BME280;64233;51.486;6.332;2024-01-15T08:53:07;154274.09;;;-0.89;100.00
75640;BME280;64233;51.486;6.332;2024-01-15T08:55:32;154277.91;;;-0.87;100.00
75640;BME280;64233;51.486;6.332;2024-01-15T08:57:58;154286.88;;;-0.83;100.00
75640;BME280;64233;51.486;6.332;2024-01-15T09:00:23;154285.56;;;-0.84;100.00
75640;BME280;64233;51.486;6.332;2024-01-15T09:02:48;154276.66;;;-0.88;100.00
75640;BME280;64233;51.486;6.332;2024-01-15T09:05:14;154265.16;;;-0.92;100.00
75640;BME280;64233;51.486;6.332;2024-01-15T09:07:39;154263.88;;;-0.93;100.00
75640;BME280;64233;51.486;6.332;2024-01-15T09:10:05;154260.06;;;-0.94;100.00
75640;BME280;64233;51.486;6.332;2024-01-15T09:12:30;154258.81;;;-0.95;100.00
75640;BME280;64233;51.486;6.332;2024-01-15T09:14:55;154261.31;;;-0.94;100.00
75640;BME280;64233;51.486;6.332;2024-01-15T09:17:21;154255.00;;;-0.96;100.00
75640;BME280;64233;51.486;6.332;2024-01-15T09:19:49;154270.28;;;-0.90;100.00
75640;BME280;64233;51.486;6.332;2024-01-15T09:22:14;154272.84;;;-0.89;100.00
75640;BME280;64233;51.486;6.332;2024-01-15T09:24:43;154272.84;;;-0.89;100.00
75640;BME280;64233;51.486;6.332;2024-01-15T09:27:08;154269.03;;;-0.91;100.00
75640;BME280;64233;51.486;6.332;2024-01-15T09:29:34;154276.66;;;-0.88;100.00
75640;BME280;64233;51.486;6.332;2024-01-15T09:32:02;154279.16;;;-0.87;100.00
75640;BME280;64233;51.486;6.332;2024-01-15T09:34:28;154289.38;;;-0.82;100.00
75640;BME280;64233;51.486;6.332;2024-01-15T09:36:53;154300.91;;;-0.78;100.00
75640;BME280;64233;51.486;6.332;2024-01-15T09:39:18;154308.53;;;-0.75;100.00
75640;BME280;64233;51.486;6.332;2024-01-15T09:41:44;154318.75;;;-0.71;100.00
75640;BME280;64233;51.486;6.332;2024-01-15T09:44:10;154322.56;;;-0.69;100.00
75640;BME280;64233;51.486;6.332;2024-01-15T09:46:36;154326.41;;;-0.67;100.00
75640;BME280;64233;51.486;6.332;2024-01-15T09:49:01;154330.22;;;-0.66;100.00
75640;BME280;64233;51.486;6.332;2024-01-15T09:51:31;154328.97;;;-0.66;100.00
75640;BME280;64233;51.486;6.332;2024-01-15T09:53:57;154331.47;;;-0.65;100.00
75640;BME280;64233;51.486;6.332;2024-01-15T09:56:23;154327.66;;;-0.67;100.00
75640;BME280;64233;51.486;6.332;2024-01-15T09:58:49;154325.13;;;-0.68;100.00
75640;BME280;64233;51.486;6.332;2024-01-15T10:01:22;154318.75;;;-0.71;100.00
75640;BME280;64233;51.486;6.332;2024-01-15T10:03:48;154311.09;;;-0.74;100.00
75640;BME280;64233;51.486;6.332;2024-01-15T10:06:17;154297.06;;;-0.79;100.00
75640;BME280;64233;51.486;6.332;2024-01-15T10:08:47;154291.94;;;-0.81;100.00
75640;BME280;64233;51.486;6.332;2024-01-15T10:11:13;154305.97;;;-0.76;100.00
75640;BME280;64233;51.486;6.332;2024-01-15T10:13:39;154314.94;;;-0.72;100.00
75640;BME280;64233;51.486;6.332;2024-01-15T10:16:04;154321.25;;;-0.70;100.00
75640;BME280;64233;51.486;6.332;2024-01-15T10:18:30;154291.94;;;-0.81;100.00
75640;BME280;64233;51.486;6.332;2024-01-15T10:20:56;154258.81;;;-0.95;100.00
75640;BME280;64233;51.486;6.332;2024-01-15T10:23:23;154261.31;;;-0.94;100.00
75640;BME280;64233;51.486;6.332;2024-01-15T10:25:50;154267.72;;;-0.91;100.00
75640;BME280;64233;51.486;6.332;2024-01-15T10:28:17;154280.47;;;-0.86;100.00
75640;BME280;64233;51.486;6.332;2024-01-15T10:30:44;154304.72;;;-0.76;100.00
75640;BME280;64233;51.486;6.332;2024-01-15T10:33:10;154322.56;;;-0.69;100.00
75640;BME280;64233;51.486;6.332;2024-01-15T10:35:37;154337.84;;;-0.63;100.00
75640;BME280;64233;51.486;6.332;2024-01-15T10:38:03;154351.88;;;-0.57;100.00
75640;BME280;64233;51.486;6.332;2024-01-15T10:40:29;154337.84;;;-0.63;100.00
75640;BME280;64233;51.486;6.332;2024-01-15T10:42:55;154331.47;;;-0.65;100.00
75640;BME280;64233;51.486;6.332;2024-01-15T10:45:20;154332.78;;;-0.65;100.00
75640;BME280;64233;51.486;6.332;2024-01-15T10:47:46;154364.66;;;-0.52;100.00
75640;BME280;64233;51.486;6.332;2024-01-15T10:50:12;154416.97;;;-0.31;100.00
75640;BME280;64233;51.486;6.332;2024-01-15T10:52:38;154402.94;;;-0.37;100.00
75640;BME280;64233;51.486;6.332;2024-01-15T10:55:09;154392.72;;;-0.41;100.00
75640;BME280;64233;51.486;6.332;2024-01-15T10:57:36;154392.72;;;-0.41;100.00
75640;BME280;64233;51.486;6.332;2024-01-15T11:00:03;154453.94;;;-0.16;100.00
75640;BME280;64233;51.486;6.332;2024-01-15T11:02:31;154468.00;;;-0.10;100.00
75640;BME280;64233;51.486;6.332;2024-01-15T11:04:58;154459.09;;;-0.14;100.00
75640;BME280;64233;51.486;6.332;2024-01-15T11:07:24;154436.09;;;-0.23;100.00
75640;BME280;64233;51.486;6.332;2024-01-15T11:09:50;154446.31;;;-0.19;100.00
75640;BME280;64233;51.486;6.332;2024-01-15T11:12:16;154453.94;;;-0.16;100.00
75640;BME280;64233;51.486;6.332;2024-01-15T11:14:49;154484.59;;;-0.04;100.00
75640;BME280;64233;51.486;6.332;2024-01-15T11:17:15;154519.06;;;0.10;100.00
75640;BME280;64233;51.486;6.332;2024-01-15T11:24:53;154519.06;;;0.10;100.00
75640;BME280;64233;51.486;6.332;2024-01-15T11:27:39;154540.75;;;0.19;100.00
75640;BME280;64233;51.486;6.332;2024-01-15T11:30:08;154544.56;;;0.21;100.00
75640;BME280;64233;51.486;6.332;2024-01-15T11:32:34;154552.22;;;0.24;100.00
75640;BME280;64233;51.486;6.332;2024-01-15T11:35:01;154563.69;;;0.28;100.00
75640;BME280;64233;51.486;6.332;2024-01-15T11:37:29;154593.09;;;0.40;100.00
75640;BME280;64233;51.486;6.332;2024-01-15T11:39:59;154582.88;;;0.36;100.00
75640;BME280;64233;51.486;6.332;2024-01-15T11:42:25;154587.94;;;0.38;100.00
75640;BME280;64233;51.486;6.332;2024-01-15T11:44:50;154591.78;;;0.40;100.00
75640;BME280;64233;51.486;6.332;2024-01-15T11:47:29;154572.66;;;0.32;100.00
75640;BME280;64233;51.486;6.332;2024-01-15T11:50:03;154563.69;;;0.28;100.00
75640;BME280;64233;51.486;6.332;2024-01-15T11:52:38;154575.22;;;0.33;100.00
75640;BME280;64233;51.486;6.332;2024-01-15T11:55:27;154613.50;;;0.48;100.00
75640;BME280;64233;51.486;6.332;2024-01-15T11:57:53;154619.84;;;0.51;100.00
75640;BME280;64233;51.486;6.332;2024-01-15T12:00:20;154605.81;;;0.45;100.00
75640;BME280;64233;51.486;6.332;2024-01-15T12:02:46;154633.91;;;0.57;100.00
75640;BME280;64233;51.486;6.332;2024-01-15T12:05:14;154699.03;;;0.83;100.00
75640;BME280;64233;51.486;6.332;2024-01-15T12:07:40;154668.38;;;0.71;100.00
75640;BME280;64233;51.486;6.332;2024-01-15T12:10:16;154677.34;;;0.74;100.00
75640;BME280;64233;51.486;6.332;2024-01-15T12:12:58;154699.03;;;0.83;100.00
75640;BME280;64233;51.486;6.332;2024-01-15T12:15:25;154706.69;;;0.86;100.00
75640;BME280;64233;51.486;6.332;2024-01-15T12:17:51;154693.94;;;0.81;100.00
75640;BME280;64233;51.486;6.332;2024-01-15T12:20:17;154695.22;;;0.81;100.00
75640;BME280;64233;51.486;6.332;2024-01-15T12:22:43;154672.22;;;0.72;100.00
75640;BME280;64233;51.486;6.332;2024-01-15T12:25:09;154667.13;;;0.70;100.00
75640;BME280;64233;51.486;6.332;2024-01-15T12:27:34;154670.94;;;0.72;100.00
75640;BME280;64233;51.486;6.332;2024-01-15T12:30:00;154653.06;;;0.64;100.00
75640;BME280;64233;51.486;6.332;2024-01-15T12:32:25;154655.66;;;0.65;100.00
75640;BME280;64233;51.486;6.332;2024-01-15T12:34:51;154641.59;;;0.60;100.00
75640;BME280;64233;51.486;6.332;2024-01-15T12:37:20;154637.78;;;0.58;100.00
75640;BME280;64233;51.486;6.332;2024-01-15T12:39:46;154632.66;;;0.56;100.00